Startpagina
METAR-TAF:

METAR-TAF

Vliegvelden :

Stockholm-Arlanda, Zweden

Luchthaven Stockholm-Arlanda

breedte: 59-39N, lengte: 017-57E, hoogte: 38 m

Actueel weer

Dit bericht is 35 minuten geleden gemaakt, om 14:50 UTC
Wind 11 kt uit het noordnoordoosten
Temperatuur 11°C
Vochtigheid 100%
Druk 1024 hPa
Zicht: 4000 m
Geheel bewolkt op 500 ft
nevel

METAR: ESSA 221450Z 03011KT 4000 BR OVC005 11/11 Q1024 NOSIG

Tijdstip: 17:25 (15:25 UTC)

Verwachting

Dit bericht is 2 uur en het 0 minuten geleden gemaakt, om 13:25 UTC
Verwachting geldig van 22 om 13 UTC tot 23 om 12 UTC
Wind 10 kt uit het oostnoordoosten
Zicht 10 km of meer
Gebroken wolken op 400 ft
Kans 40%
van 22 om 13 UTC tot 22 om 20 UTC
Zicht: 4000 m
Gebroken wolken op 1000 ft
motregen
Wijzigt naar
van 22 om 20 UTC tot 22 om 22 UTC
Gebroken wolken op 2000 ft
Tijdelijke
van 23 om 03 UTC tot 23 om 10 UTC
Gebroken wolken op 800 ft

TAF: ESSA 221325Z 2213/2312 06010KT 9999 BKN004 PROB40 2213/2220 4000 DZ BKN010 BECMG 2220/2222 BKN020 TEMPO 2303/2310 BKN008

Waarnemingen en weersverwachtingen van meer dan 4000 vliegvelden (METAR en TAF).

De beschikbare stations zijn de gele en rode punten op de kaart.

Ga met uw muis naar het station om de naam te zien.

Klik dan om waarnemingen en weersverwachtingen te zien.

kaart wijzigen: klik op de groene knoppen met een zwart kruis om in te zoomen, op de groene knop met een streepje om uit te zoomen of op de groene pijlen voor aangrenzende kaarten.


METAR-TAF: